Time;durP1;ratioP1;P1;durP2;ratioP2;P2;SDS_P1;SDS_P2;PMS_P1;PMS_P2;Temp;Humidity;BMP_temperature;BMP_pressure;BME280_temperature;BME280_humidity;BME280_pressure;Samples;Min_cycle;Max_cycle;Signal;HPM_P1;HPM_P2
2022/08/08 00:01:22;;;;;;;1.17;1.00;;;21.80;45.80;;;-142.21;41.81;112049.66;5048277;28;20204;-77
2022/08/08 00:04:05;;;;;;;0.90;0.90;;;21.80;45.90;;;-142.21;42.28;112049.66;5042105;28;20700;-76
2022/08/08 00:06:46;;;;;;;1.37;1.20;;;21.80;46.30;;;-142.21;42.55;112049.66;5038498;28;20197;-76
2022/08/08 00:09:28;;;;;;;1.20;1.10;;;21.70;46.40;;;-142.21;42.75;112049.66;5049478;28;20202;-75
2022/08/08 00:12:05;;;;;;;1.80;0.93;;;21.60;46.50;;;-142.21;42.92;112049.66;5046630;28;20482;-76
2022/08/08 00:14:50;;;;;;;1.90;1.20;;;21.50;46.50;;;-142.21;42.50;112049.66;5050347;28;20194;-77
2022/08/08 00:17:26;;;;;;;1.97;1.30;;;21.60;46.30;;;-142.21;42.52;112049.66;5050594;28;20202;-76
2022/08/08 00:20:02;;;;;;;2.77;1.17;;;21.50;46.30;;;-142.21;42.78;112049.66;5033566;28;20197;-76
2022/08/08 00:22:40;;;;;;;1.40;1.03;;;21.50;46.50;;;-142.21;43.30;112049.66;5047876;28;20313;-76
2022/08/08 00:25:16;;;;;;;1.40;1.30;;;21.50;46.90;;;-142.21;43.89;112049.66;5045244;28;20281;-76
2022/08/08 00:27:44;;;;;;;2.67;1.27;;;21.40;47.20;;;-142.21;44.06;112049.66;5054735;28;20281;-74
2022/08/08 00:30:15;;;;;;;2.47;1.00;;;21.30;47.10;;;-142.21;44.13;112049.66;5053315;28;20198;-77
2022/08/08 00:32:51;;;;;;;1.20;1.10;;;21.30;47.30;;;-142.21;44.15;112049.66;5048209;28;20281;-76
2022/08/08 00:35:40;;;;;;;0.90;0.90;;;21.30;47.90;;;-142.21;44.21;112049.66;5048811;28;20186;-77
2022/08/08 00:38:32;;;;;;;1.27;1.10;;;21.20;47.60;;;-142.21;44.42;112049.66;5047088;28;20611;-75
2022/08/08 00:42:12;;;;;;;1.20;1.10;;;21.20;47.80;;;-142.21;44.76;112049.66;5046688;28;20194;-77
2022/08/08 00:45:17;;;;;;;2.17;1.00;;;21.10;48.10;;;-142.21;44.81;112049.66;5046170;28;20680;-76
2022/08/08 00:48:23;;;;;;;1.37;1.27;;;21.10;48.10;;;-142.21;44.74;112049.66;5039313;28;20200;-76
2022/08/08 00:51:47;;;;;;;1.33;1.10;;;21.00;48.00;;;-142.21;44.94;112049.66;5039948;28;20625;-76
2022/08/08 00:54:51;;;;;;;1.27;1.17;;;20.90;48.00;;;-142.21;45.53;112049.66;5044173;28;20213;-77
2022/08/08 00:58:18;;;;;;;1.33;1.00;;;20.90;48.40;;;-142.21;45.91;112049.66;5043943;28;20195;-77
2022/08/08 01:00:57;;;;;;;2.10;1.23;;;20.90;48.40;;;-142.21;46.01;112049.66;5050786;28;20293;-76
2022/08/08 01:04:08;;;;;;;1.40;1.20;;;20.80;48.40;;;-142.21;45.68;112049.66;5050890;28;20210;-75
2022/08/08 01:07:42;;;;;;;0.93;0.77;;;20.80;48.40;;;-142.21;44.79;112049.66;5051922;28;20653;-76
2022/08/08 01:11:07;;;;;;;1.20;1.03;;;20.70;48.10;;;-142.21;45.35;112049.66;5040646;28;20223;-75
2022/08/08 01:14:34;;;;;;;1.40;1.30;;;20.40;47.90;;;-142.21;46.41;112049.66;5041677;28;20206;-76
2022/08/08 01:17:54;;;;;;;1.10;1.10;;;20.30;48.60;;;-142.21;47.21;112049.66;5052190;28;20204;-77
2022/08/08 01:20:56;;;;;;;1.17;1.07;;;20.20;49.10;;;-142.21;47.35;112049.66;5006998;28;20206;-76
2022/08/08 01:24:16;;;;;;;1.10;1.00;;;20.20;49.10;;;-142.21;47.50;112049.66;5044984;28;20211;-76
2022/08/08 01:27:25;;;;;;;1.17;1.10;;;20.10;49.20;;;-142.21;47.55;112049.66;5032832;28;20289;-76
2022/08/08 01:30:39;;;;;;;1.37;1.27;;;20.20;49.30;;;-142.21;48.77;112049.66;5044764;28;20194;-76
2022/08/08 01:34:25;;;;;;;1.20;1.10;;;20.10;49.70;;;-142.21;49.89;112049.66;5043619;28;20237;-76
2022/08/08 01:37:49;;;;;;;1.37;1.27;;;20.10;50.30;;;-142.21;49.71;112049.66;5033165;28;20240;-76
2022/08/08 01:40:30;;;;;;;1.23;1.13;;;20.00;50.00;;;-142.21;50.21;112049.66;5030901;28;20201;-76
2022/08/08 01:43:10;;;;;;;1.03;1.00;;;20.00;50.10;;;-142.21;50.19;112049.66;5049175;28;20756;-75
2022/08/08 01:45:55;;;;;;;1.40;1.30;;;19.90;50.20;;;-142.21;49.27;112049.66;5043124;28;20638;-76
2022/08/08 01:48:43;;;;;;;1.20;1.10;;;19.90;49.90;;;-142.21;50.06;112049.66;5045089;28;20190;-76
2022/08/08 01:51:50;;;;;;;1.10;1.10;;;19.90;49.90;;;-142.21;50.37;112049.66;5045801;28;20440;-76
2022/08/08 01:54:34;;;;;;;1.57;1.40;;;19.90;50.30;;;-142.21;49.65;112049.66;5019024;28;20240;-75
2022/08/08 01:57:21;;;;;;;1.60;1.30;;;19.80;49.90;;;-142.21;50.42;112049.66;5043035;28;20616;-74
2022/08/08 02:00:13;;;;;;;1.27;1.17;;;19.70;50.20;;;-142.21;50.03;112049.66;5036587;28;20190;-76
2022/08/08 02:03:16;;;;;;;1.60;1.30;;;19.70;50.20;;;-142.21;50.78;112049.66;5049406;28;20214;-76
2022/08/08 02:06:00;;;;;;;1.87;1.10;;;19.70;50.50;;;-142.21;51.50;112049.66;5074350;28;20204;-75
2022/08/08 02:08:48;;;;;;;1.70;1.60;;;19.60;50.40;;;-142.21;51.05;112049.66;5047615;28;20200;-75
2022/08/08 02:11:37;;;;;;;1.17;1.07;;;19.60;50.70;;;-142.21;51.26;112049.66;5051791;28;20229;-74
2022/08/08 02:14:22;;;;;;;1.67;1.20;;;19.60;50.40;;;-142.21;51.64;112049.66;5019993;28;20285;-76
2022/08/08 02:17:02;;;;;;;1.40;1.30;;;19.60;50.70;;;-142.21;51.79;112049.66;5065413;28;20190;-76
2022/08/08 02:19:47;;;;;;;1.67;1.10;;;19.50;50.50;;;-142.21;52.10;112049.66;5043950;28;20198;-76
2022/08/08 02:22:30;;;;;;;2.07;1.70;;;19.60;50.80;;;-142.21;52.42;112049.66;5050858;28;20205;-76
2022/08/08 02:25:12;;;;;;;1.40;1.30;;;19.60;50.90;;;-142.21;53.43;112049.66;5050972;28;20193;-76
2022/08/08 02:27:48;;;;;;;3.07;1.40;;;19.50;51.30;;;-142.21;53.31;112049.66;5045782;28;20563;-76
2022/08/08 02:30:20;;;;;;;1.30;1.03;;;19.40;51.30;;;-142.21;53.32;112049.66;5050383;28;20200;-76
2022/08/08 02:33:14;;;;;;;2.13;1.20;;;19.40;51.30;;;-142.21;54.02;112049.66;5045585;28;20378;-76
2022/08/08 02:36:22;;;;;;;1.83;1.30;;;19.30;51.70;;;-142.21;53.97;112049.66;5032059;28;20191;-77
2022/08/08 02:39:05;;;;;;;1.20;1.13;;;19.20;51.80;;;-142.21;54.27;112049.66;5036113;28;20978;-76
2022/08/08 02:42:05;;;;;;;1.47;1.37;;;19.20;51.70;;;-142.21;53.85;112049.66;5033050;28;20663;-75
2022/08/08 02:45:17;;;;;;;2.03;1.23;;;19.20;51.90;;;-142.21;54.24;112049.66;5035539;28;20679;-78
2022/08/08 02:48:28;;;;;;;1.67;1.43;;;19.20;52.10;;;-142.21;55.42;112049.66;5045033;28;20204;-78
2022/08/08 02:51:48;;;;;;;1.87;1.30;;;19.10;52.10;;;-142.21;54.91;112049.66;5046323;28;20561;-79
2022/08/08 02:54:52;;;;;;;1.40;1.30;;;19.10;52.10;;;-142.21;55.07;112049.66;5065383;28;20448;-79
2022/08/08 02:58:08;;;;;;;0.90;0.90;;;19.10;52.00;;;-142.21;55.16;112049.66;5029538;28;20214;-78
2022/08/08 03:01:18;;;;;;;1.43;1.33;;;19.00;52.30;;;-142.21;54.65;112049.66;5049302;28;20233;-77
2022/08/08 03:04:44;;;;;;;1.13;1.00;;;18.90;52.10;;;-142.21;55.21;112049.66;5030269;28;20266;-78
2022/08/08 03:08:05;;;;;;;1.30;1.20;;;18.80;52.10;;;-142.21;55.59;112049.66;5004741;28;20212;-78
2022/08/08 03:11:23;;;;;;;2.17;1.37;;;18.90;52.50;;;-142.21;56.01;112049.66;5031771;28;20214;-77
2022/08/08 03:14:36;;;;;;;1.17;1.17;;;18.80;52.40;;;-142.21;56.17;112049.66;5050101;28;20458;-78
2022/08/08 03:17:12;;;;;;;1.20;1.10;;;18.80;52.50;;;-142.21;55.99;112049.66;5034689;28;20225;-79
2022/08/08 03:20:04;;;;;;;1.90;1.20;;;18.80;52.30;;;-142.21;56.43;112049.66;5050158;28;20208;-78
2022/08/08 03:22:30;;;;;;;2.97;1.40;;;18.70;52.60;;;-142.21;56.55;112049.66;5038645;28;20445;-78
2022/08/08 03:25:01;;;;;;;2.20;1.30;;;18.70;52.40;;;-142.21;56.98;112049.66;5052818;28;20204;-78
2022/08/08 03:27:37;;;;;;;1.10;1.00;;;18.60;52.30;;;-142.21;56.73;112049.66;5051777;28;20441;-78
2022/08/08 03:30:08;;;;;;;1.80;1.60;;;18.60;52.50;;;-142.21;56.57;112049.66;5052904;28;20237;-78
2022/08/08 03:35:23;;;;;;;1.93;1.40;;;18.50;52.60;;;-142.21;57.11;112049.66;5039813;28;20279;-77
2022/08/08 03:37:52;;;;;;;2.57;1.37;;;18.50;52.60;;;-142.21;57.15;112049.66;5047393;28;20472;-77
2022/08/08 03:40:23;;;;;;;1.37;1.27;;;18.50;52.80;;;-142.21;57.31;112049.66;5053563;28;20201;-76
2022/08/08 03:42:50;;;;;;;1.23;1.10;;;18.40;52.90;;;-142.21;57.97;112049.66;5035761;28;20579;-78
2022/08/08 03:45:20;;;;;;;2.03;1.30;;;18.50;53.10;;;-142.21;58.14;112049.66;5051998;28;20445;-78
2022/08/08 03:47:56;;;;;;;2.23;1.47;;;18.50;53.10;;;-142.21;58.45;112049.66;5048884;28;20294;-78
2022/08/08 03:50:25;;;;;;;2.43;1.50;;;18.40;53.30;;;-142.21;59.29;112049.66;5045666;28;20200;-78
2022/08/08 03:52:52;;;;;;;2.87;1.40;;;18.40;53.20;;;-142.21;59.36;112049.66;5047144;28;20194;-77
2022/08/08 03:55:23;;;;;;;2.83;1.33;;;18.40;53.30;;;-142.21;59.97;112049.66;5041843;28;20447;-78
2022/08/08 03:57:54;;;;;;;1.97;1.43;;;18.40;53.60;;;-142.21;59.90;112049.66;5048629;28;20439;-77
2022/08/08 04:00:25;;;;;;;3.27;1.47;;;18.30;53.70;;;-142.21;59.53;112049.66;5051434;28;20547;-78
2022/08/08 04:02:58;;;;;;;2.93;1.40;;;18.30;53.50;;;-142.21;59.60;112049.66;5052851;28;20200;-78
2022/08/08 04:05:27;;;;;;;1.77;1.27;;;18.30;53.50;;;-142.21;59.70;112049.66;5047635;28;20456;-78
2022/08/08 04:07:54;;;;;;;1.30;1.20;;;18.30;53.50;;;-142.21;59.58;112049.66;5052286;28;20456;-78
2022/08/08 04:10:22;;;;;;;1.43;1.23;;;18.30;53.60;;;-142.21;61.05;112049.66;5044654;28;20964;-78
2022/08/08 04:12:50;;;;;;;3.10;1.70;;;18.30;54.00;;;-142.21;62.64;112049.66;5052219;28;20229;-78
2022/08/08 04:15:17;;;;;;;6.30;1.80;;;18.30;54.50;;;-142.21;63.09;112049.66;5049248;28;20968;-77
2022/08/08 04:17:44;;;;;;;2.03;1.57;;;18.20;54.70;;;-142.21;62.78;112049.66;5046821;28;20798;-78
2022/08/08 04:20:12;;;;;;;5.27;1.90;;;18.20;54.60;;;-142.21;62.70;112049.66;5052399;28;20471;-77
2022/08/08 04:22:39;;;;;;;4.93;1.57;;;18.20;54.60;;;-142.21;62.51;112049.66;5043627;28;20453;-78
2022/08/08 04:25:09;;;;;;;2.20;1.37;;;18.10;54.60;;;-142.21;62.37;112049.66;5050891;28;20441;-78
2022/08/08 04:27:38;;;;;;;3.57;1.70;;;18.20;54.60;;;-142.21;62.95;112049.66;5049490;28;20440;-79
2022/08/08 04:30:08;;;;;;;1.80;1.43;;;18.20;54.80;;;-142.21;62.29;112049.66;5052837;28;20807;-78
2022/08/08 04:32:35;;;;;;;1.57;1.47;;;18.20;54.70;;;-142.21;65.13;112049.66;5051789;28;20568;-77
2022/08/08 04:35:02;;;;;;;1.53;1.37;;;18.20;55.50;;;-142.21;65.10;112049.66;5044602;28;20458;-78
2022/08/08 04:37:29;;;;;;;2.57;1.40;;;18.20;56.10;;;-142.21;66.40;112049.66;5051980;28;20539;-78
2022/08/08 04:39:57;;;;;;;6.17;1.93;;;18.10;55.80;;;-142.21;67.76;112049.66;5050269;28;20293;-77
2022/08/08 04:42:25;;;;;;;3.50;1.57;;;18.10;56.30;;;-142.21;65.07;112049.66;5052634;28;20567;-78
2022/08/08 04:44:56;;;;;;;3.20;1.47;;;18.10;55.60;;;-142.21;64.45;112049.66;5041786;28;20483;-77
2022/08/08 04:47:24;;;;;;;5.07;1.47;;;18.10;55.40;;;-142.21;64.88;112049.66;5048569;28;20445;-78
2022/08/08 04:49:53;;;;;;;1.60;1.43;;;18.10;55.20;;;-142.21;64.40;112049.66;5049706;28;20440;-78
2022/08/08 04:52:20;;;;;;;6.63;1.90;;;18.10;55.40;;;-142.21;65.42;112049.66;5049048;28;20437;-79
2022/08/08 04:54:49;;;;;;;4.30;1.53;;;18.10;55.50;;;-142.21;65.07;112049.66;5044669;28;20544;-78
2022/08/08 04:57:16;;;;;;;1.93;1.60;;;18.10;55.50;;;-142.21;64.70;112049.66;5051763;28;20276;-77
2022/08/08 04:59:44;;;;;;;4.30;1.63;;;18.20;55.60;;;-142.21;64.04;112049.66;5054904;28;20250;-78
2022/08/08 05:02:13;;;;;;;4.67;1.70;;;18.20;55.50;;;-142.21;64.39;112049.66;5065796;28;20449;-76
2022/08/08 05:04:41;;;;;;;1.80;1.60;;;18.20;55.40;;;-142.21;65.14;112049.66;5048859;28;20492;-77
2022/08/08 05:07:08;;;;;;;1.60;1.50;;;18.20;55.60;;;-142.21;64.95;112049.66;5047824;28;20201;-77
2022/08/08 05:09:36;;;;;;;4.33;1.90;;;18.30;55.40;;;-142.21;65.61;112049.66;5048453;28;20459;-78
2022/08/08 05:12:03;;;;;;;2.13;1.60;;;18.30;55.70;;;-142.21;66.23;112049.66;5043482;28;20197;-77
2022/08/08 05:14:30;;;;;;;1.60;1.50;;;18.30;55.90;;;-142.21;66.33;112049.66;5039000;28;20956;-78
2022/08/08 05:16:57;;;;;;;1.50;1.30;;;18.40;56.10;;;-142.21;66.71;112049.66;5036699;28;20275;-78
2022/08/08 05:19:37;;;;;;;2.07;1.70;;;18.40;56.20;;;-142.21;66.36;112049.66;5047361;28;20256;-78
2022/08/08 05:22:07;;;;;;;1.77;1.40;;;18.50;56.40;;;-142.21;67.07;112049.66;5051408;28;20194;-79
2022/08/08 05:24:34;;;;;;;1.70;1.60;;;18.50;56.30;;;-142.21;67.04;112049.66;5052421;28;21010;-79
2022/08/08 05:27:01;;;;;;;1.67;1.57;;;18.60;56.30;;;-142.21;67.29;112049.66;5039068;28;20293;-79
2022/08/08 05:29:29;;;;;;;1.90;1.60;;;18.60;56.20;;;-142.21;66.01;112049.66;5049076;28;20198;-78
2022/08/08 05:31:56;;;;;;;1.30;1.20;;;18.60;56.00;;;-142.21;66.10;112049.66;5049879;28;20200;-78
2022/08/08 05:34:30;;;;;;;2.33;1.87;;;18.60;55.90;;;-142.21;66.37;112049.66;5052440;28;20448;-79
2022/08/08 05:37:00;;;;;;;1.93;1.43;;;18.70;56.00;;;-142.21;65.76;112049.66;5049633;28;20201;-78
2022/08/08 05:39:29;;;;;;;6.47;2.50;;;18.70;55.80;;;-142.21;66.46;112049.66;5041937;28;20237;-79
2022/08/08 05:41:59;;;;;;;5.53;3.03;;;18.80;55.80;;;-142.21;62.09;112049.66;5035881;28;20694;-76
2022/08/08 05:44:30;;;;;;;6.87;3.83;;;18.80;55.00;;;-142.21;62.78;112049.66;5034772;28;20243;-76
2022/08/08 05:46:59;;;;;;;7.00;3.50;;;18.90;55.00;;;-142.21;60.75;112049.66;5048087;28;20294;-76
2022/08/08 05:49:27;;;;;;;5.43;2.80;;;19.00;54.50;;;-142.21;59.23;112049.66;5036165;28;20441;-79
2022/08/08 05:51:54;;;;;;;5.30;2.50;;;19.10;53.80;;;-142.21;61.58;112049.66;5051688;28;20873;-77
2022/08/08 05:54:22;;;;;;;6.17;2.23;;;19.10;54.50;;;-142.21;61.57;112049.66;5043761;28;20206;-79
2022/08/08 05:56:54;;;;;;;2.20;1.73;;;19.20;54.50;;;-142.21;59.48;112049.66;5038702;28;20281;-79
2022/08/08 05:59:24;;;;;;;2.47;1.60;;;19.30;54.10;;;-142.21;58.77;112049.66;5051513;28;20205;-79
2022/08/08 06:01:55;;;;;;;2.20;2.00;;;19.40;53.70;;;-142.21;59.44;112049.66;5048932;28;20204;-80
2022/08/08 06:04:26;;;;;;;2.77;1.50;;;19.40;53.90;;;-142.21;59.62;112049.66;5042893;28;20202;-78
2022/08/08 06:06:58;;;;;;;1.57;1.10;;;19.50;53.80;;;-142.21;58.61;112049.66;5049454;28;20288;-78
2022/08/08 06:09:31;;;;;;;1.60;1.40;;;19.60;53.60;;;-142.21;59.01;112049.66;5049187;28;20271;-79
2022/08/08 06:12:01;;;;;;;1.20;1.10;;;19.80;54.00;;;-142.21;57.63;112049.66;5048191;28;20190;-78
2022/08/08 06:14:29;;;;;;;1.33;1.20;;;19.90;53.30;;;-142.21;57.66;112049.66;5051396;28;20197;-79
2022/08/08 06:17:00;;;;;;;1.50;1.40;;;20.00;53.40;;;-142.21;56.28;112049.66;5050686;28;20296;-77
2022/08/08 06:19:28;;;;;;;2.13;1.30;;;20.10;52.90;;;-142.21;57.09;112049.66;5047737;28;20642;-77
2022/08/08 06:21:57;;;;;;;1.77;1.40;;;20.20;53.10;;;-142.21;56.48;112049.66;5046150;28;20191;-76
2022/08/08 06:24:25;;;;;;;1.60;1.50;;;20.30;52.90;;;-142.21;55.43;112049.66;5043628;28;20644;-77
2022/08/08 06:27:04;;;;;;;3.40;1.50;;;20.40;52.60;;;-142.21;54.08;112049.66;5051341;28;20289;-79
2022/08/08 06:29:35;;;;;;;1.63;1.23;;;20.60;52.90;;;-142.21;54.35;112049.66;5051972;28;20222;-77
2022/08/08 06:32:04;;;;;;;2.27;1.33;;;20.70;52.40;;;-142.21;53.68;112049.66;5050613;28;20659;-77
2022/08/08 06:34:39;;;;;;;1.73;1.30;;;20.80;52.00;;;-142.21;52.93;112049.66;5051173;28;20296;-73
2022/08/08 06:37:14;;;;;;;4.03;1.43;;;20.90;51.70;;;-142.21;52.39;112049.66;5049057;28;20193;-75
2022/08/08 06:39:44;;;;;;;2.17;1.50;;;21.00;51.50;;;-142.21;51.36;112049.66;5051665;28;20219;-75
2022/08/08 06:42:14;;;;;;;1.83;1.20;;;21.10;51.20;;;-142.21;50.40;112049.66;5050588;28;20289;-74
2022/08/08 06:44:41;;;;;;;1.50;1.17;;;21.20;50.80;;;-142.21;49.96;112049.66;5050385;28;20210;-75
2022/08/08 06:47:12;;;;;;;2.30;1.40;;;21.30;50.60;;;-142.21;48.12;112049.66;5045629;28;20205;-75
2022/08/08 06:49:42;;;;;;;4.50;1.17;;;21.40;49.80;;;-142.21;47.09;112049.66;5052255;28;20199;-75
2022/08/08 06:52:12;;;;;;;0.83;0.83;;;21.50;49.40;;;-142.21;46.36;112049.66;5050690;28;20194;-74
2022/08/08 06:54:42;;;;;;;4.20;1.50;;;21.70;49.20;;;-142.21;46.08;112049.66;5052722;28;20621;-75
2022/08/08 06:57:11;;;;;;;1.30;1.20;;;21.70;48.70;;;-142.21;46.04;112049.66;5054742;28;20298;-75
2022/08/08 06:59:38;;;;;;;2.97;1.20;;;21.90;49.00;;;-142.21;45.38;112049.66;5054605;28;20224;-74
2022/08/08 07:02:06;;;;;;;1.00;1.00;;;22.00;48.40;;;-142.21;44.44;112049.66;5053114;28;20698;-73
2022/08/08 07:15:47;;;;;;;1.00;1.00;;;22.50;46.80;;;-142.21;42.68;112049.66;5054715;28;20543;-74
2022/08/08 07:18:43;;;;;;;1.30;1.10;;;22.60;46.90;;;-142.21;42.12;112049.66;5055349;28;20197;-73
2022/08/08 07:21:17;;;;;;;2.50;1.10;;;22.70;46.60;;;-142.21;41.30;112049.66;5044211;28;20225;-74
2022/08/08 07:23:54;;;;;;;1.80;1.00;;;22.90;46.10;;;-142.21;40.90;112049.66;5054578;28;20232;-73
2022/08/08 07:26:23;;;;;;;2.17;1.30;;;23.00;45.60;;;-142.21;40.97;112049.66;5055158;28;20198;-73
2022/08/08 07:28:53;;;;;;;3.63;1.10;;;23.10;45.60;;;-142.21;40.83;112049.66;5055135;28;20288;-73
2022/08/08 07:31:22;;;;;;;1.10;1.00;;;23.20;45.70;;;-142.21;40.56;112049.66;5055013;28;20244;-73
2022/08/08 07:33:53;;;;;;;1.30;1.10;;;23.30;45.30;;;-142.21;40.08;112049.66;5054939;28;20292;-73
2022/08/08 07:36:23;;;;;;;1.10;1.00;;;23.50;45.10;;;-142.21;39.76;112049.66;5054648;28;20263;-73
2022/08/08 07:38:52;;;;;;;1.97;1.27;;;23.50;44.70;;;-142.21;39.70;112049.66;5055121;28;20202;-73
2022/08/08 07:41:21;;;;;;;0.93;0.93;;;23.70;44.90;;;-142.21;39.47;112049.66;5054962;28;20235;-73
2022/08/08 07:43:49;;;;;;;1.17;1.07;;;23.80;44.60;;;-142.21;39.17;112049.66;5054649;28;20245;-73
2022/08/08 07:46:17;;;;;;;0.77;0.77;;;23.90;44.20;;;-142.21;38.93;112049.66;5054902;28;20288;-74
2022/08/08 07:48:45;;;;;;;0.97;0.90;;;24.00;44.00;;;-142.21;38.78;112049.66;5052036;28;20202;-73
2022/08/08 07:51:12;;;;;;;0.80;0.80;;;24.10;43.80;;;-142.21;38.80;112049.66;5054039;28;20204;-74
2022/08/08 07:53:47;;;;;;;1.40;1.00;;;24.20;43.80;;;-142.21;38.28;112049.66;5053670;28;20289;-74
2022/08/08 07:56:17;;;;;;;2.10;0.93;;;24.30;43.50;;;-142.21;38.37;112049.66;5054660;28;20685;-73
2022/08/08 07:58:48;;;;;;;0.90;0.90;;;24.40;43.40;;;-142.21;38.48;112049.66;5054411;28;20213;-74
2022/08/08 08:01:22;;;;;;;1.43;1.00;;;24.50;43.50;;;-142.21;38.35;112049.66;5054374;28;20201;-73
2022/08/08 08:03:55;;;;;;;1.00;0.90;;;24.70;43.20;;;-142.21;38.19;112049.66;5054540;28;20243;-74
2022/08/08 08:06:22;;;;;;;1.70;0.90;;;24.80;43.80;;;-142.21;38.08;112049.66;5053487;28;20198;-74
2022/08/08 08:09:00;;;;;;;2.10;1.33;;;24.90;43.00;;;-142.21;38.42;112049.66;5054470;28;20284;-73
2022/08/08 08:11:34;;;;;;;1.67;1.30;;;25.00;43.30;;;-142.21;37.83;112049.66;5053946;28;20201;-73
2022/08/08 08:14:07;;;;;;;1.57;1.30;;;25.10;42.80;;;-142.21;37.64;112049.66;5054594;28;20190;-74
2022/08/08 08:16:36;;;;;;;1.30;1.20;;;25.20;42.50;;;-142.21;37.02;112049.66;5053653;28;20281;-73
2022/08/08 08:19:07;;;;;;;1.03;0.93;;;25.30;42.00;;;-142.21;36.96;112049.66;5053490;28;20738;-73
2022/08/08 08:21:40;;;;;;;2.00;0.93;;;25.30;42.00;;;-142.21;37.48;112049.66;5053661;28;20201;-73
2022/08/08 08:24:09;;;;;;;1.30;1.20;;;25.40;42.50;;;-142.21;37.70;112049.66;5053812;28;20186;-73
2022/08/08 08:26:36;;;;;;;0.90;0.90;;;25.60;42.60;;;-142.21;36.89;112049.66;5053472;28;20297;-73
2022/08/08 08:29:07;;;;;;;1.27;1.17;;;25.60;42.10;;;-142.21;36.74;112049.66;5053536;28;20208;-73
2022/08/08 08:31:36;;;;;;;2.27;1.17;;;25.70;41.80;;;-142.21;36.45;112049.66;5053735;28;20229;-73
2022/08/08 08:34:05;;;;;;;1.50;1.40;;;25.80;41.50;;;-142.21;36.92;112049.66;5056733;28;20197;-73
2022/08/08 08:36:35;;;;;;;2.17;1.10;;;25.90;41.80;;;-142.21;37.65;112049.66;5056512;28;20636;-72
2022/08/08 08:39:02;;;;;;;1.17;1.07;;;26.10;42.40;;;-142.21;36.78;112049.66;5055019;28;20228;-72
2022/08/08 08:41:32;;;;;;;1.87;1.47;;;26.20;41.80;;;-142.21;37.21;112049.66;5053167;28;20654;-73
2022/08/08 08:44:02;;;;;;;1.20;1.10;;;26.30;42.10;;;-142.21;36.60;112049.66;5053500;28;20698;-74
2022/08/08 08:46:32;;;;;;;3.77;1.50;;;26.40;41.50;;;-142.21;37.30;112049.66;5052751;28;20293;-74
2022/08/08 08:49:01;;;;;;;4.57;1.50;;;26.50;42.10;;;-142.21;36.50;112049.66;5052548;28;20193;-73
2022/08/08 08:51:34;;;;;;;1.30;1.20;;;26.60;41.50;;;-142.21;36.11;112049.66;5043818;28;20212;-73
2022/08/08 08:54:06;;;;;;;1.60;1.50;;;26.70;41.40;;;-142.21;36.28;112049.66;5053596;28;20186;-74
2022/08/08 08:56:36;;;;;;;1.63;1.47;;;26.80;41.20;;;-142.21;36.94;112049.66;5053304;28;20596;-75
2022/08/08 08:59:05;;;;;;;1.00;0.90;;;26.90;41.70;;;-142.21;36.90;112049.66;5053493;28;20209;-74
2022/08/08 09:01:37;;;;;;;1.53;1.43;;;27.10;41.40;;;-142.21;36.41;112049.66;5053132;28;20544;-72
2022/08/08 09:04:11;;;;;;;1.50;1.40;;;27.10;41.40;;;-142.21;36.14;112049.66;5054680;28;20194;-73
2022/08/08 09:06:42;;;;;;;1.67;1.33;;;27.20;41.00;;;-142.21;36.09;112049.66;5051945;28;20192;-73
2022/08/08 09:09:14;;;;;;;2.20;1.50;;;27.30;41.00;;;-142.21;36.26;112049.66;5045073;28;20195;-74
2022/08/08 09:11:46;;;;;;;1.40;1.30;;;27.40;41.20;;;-142.21;36.58;112049.66;5046081;28;20659;-73
2022/08/08 09:14:16;;;;;;;1.80;1.20;;;27.50;41.30;;;-142.21;36.29;112049.66;5051942;28;20293;-74
2022/08/08 09:16:46;;;;;;;1.67;1.50;;;27.70;41.20;;;-142.21;36.44;112049.66;5052479;28;20240;-74
2022/08/08 09:19:14;;;;;;;2.10;1.40;;;27.70;41.80;;;-142.21;36.15;112049.66;5052812;28;20199;-74
2022/08/08 09:21:45;;;;;;;1.70;1.60;;;27.80;41.40;;;-142.21;36.84;112049.66;5051303;28;20237;-74
2022/08/08 09:24:14;;;;;;;3.20;1.40;;;27.90;41.40;;;-142.21;35.67;112049.66;5053332;28;20194;-73
2022/08/08 09:26:48;;;;;;;1.53;1.40;;;28.00;40.80;;;-142.21;35.90;112049.66;5052560;28;20293;-74
2022/08/08 09:29:25;;;;;;;1.77;1.50;;;28.10;40.90;;;-142.21;36.23;112049.66;5051087;28;20200;-74
2022/08/08 09:32:03;;;;;;;1.60;1.50;;;28.20;40.80;;;-142.21;35.89;112049.66;5040418;28;20212;-74
2022/08/08 09:34:33;;;;;;;1.83;1.63;;;28.40;40.70;;;-142.21;36.16;112049.66;5037566;28;20199;-74
2022/08/08 09:37:07;;;;;;;1.50;1.40;;;28.50;40.90;;;-142.21;35.86;112049.66;5042425;28;20267;-74
2022/08/08 09:39:45;;;;;;;2.00;1.80;;;28.60;40.70;;;-142.21;35.38;112049.66;5046193;28;20235;-74
2022/08/08 09:42:17;;;;;;;2.07;1.60;;;28.70;40.10;;;-142.21;36.06;112049.66;5049872;28;20285;-74
2022/08/08 09:45:03;;;;;;;1.83;1.50;;;28.90;40.60;;;-142.21;35.52;112049.66;5051692;28;20238;-73
2022/08/08 09:47:33;;;;;;;3.47;1.47;;;29.00;39.90;;;-142.21;35.85;112049.66;5042965;28;20233;-73
2022/08/08 09:50:08;;;;;;;1.73;1.63;;;29.10;40.40;;;-142.21;34.98;112049.66;5064497;28;20549;-73
2022/08/08 09:52:38;;;;;;;2.93;1.90;;;29.20;40.30;;;-142.21;35.21;112049.66;5066931;28;20225;-74
2022/08/08 09:55:07;;;;;;;2.23;1.73;;;29.30;39.80;;;-142.21;34.62;112049.66;5052834;28;20189;-74
2022/08/08 09:57:36;;;;;;;1.60;1.50;;;29.40;39.30;;;-142.21;34.81;112049.66;5051786;28;20216;-74
2022/08/08 10:00:08;;;;;;;1.63;1.53;;;29.50;39.40;;;-142.21;34.77;112049.66;5051368;28;20648;-74
2022/08/08 10:02:38;;;;;;;1.70;1.60;;;29.60;39.40;;;-142.21;33.37;112049.66;5051237;28;20197;-74
2022/08/08 10:05:13;;;;;;;2.10;2.00;;;29.60;38.40;;;-142.21;34.75;112049.66;5052427;28;20627;-74
2022/08/08 10:07:58;;;;;;;1.90;1.70;;;29.70;39.10;;;-142.21;34.32;112049.66;5051678;28;20219;-75
2022/08/08 10:10:27;;;;;;;1.73;1.57;;;29.80;38.70;;;-142.21;34.14;112049.66;5052479;28;20576;-74
2022/08/08 10:12:55;;;;;;;1.83;1.60;;;29.90;38.90;;;-142.21;34.03;112049.66;5052266;28;20197;-74
2022/08/08 10:15:23;;;;;;;2.60;1.60;;;30.10;38.70;;;-142.21;32.63;112049.66;5052038;28;20227;-74
2022/08/08 10:17:54;;;;;;;1.47;1.37;;;30.10;37.40;;;-142.21;34.14;112049.66;5051769;28;20193;-74
2022/08/08 10:20:22;;;;;;;3.57;1.60;;;30.20;38.30;;;-142.21;33.51;112049.66;5052337;28;20200;-74
2022/08/08 10:22:59;;;;;;;1.60;1.50;;;30.20;38.00;;;-142.21;33.48;112049.66;5051640;28;20201;-75
2022/08/08 10:25:28;;;;;;;1.50;1.40;;;30.40;38.10;;;-142.21;33.30;112049.66;5051889;28;20219;-74
2022/08/08 10:27:56;;;;;;;2.07;1.63;;;30.50;37.80;;;-142.21;33.29;112049.66;5052038;28;20240;-75
2022/08/08 10:30:25;;;;;;;1.70;1.60;;;30.60;38.50;;;-142.21;32.94;112049.66;5054529;28;20292;-75
2022/08/08 10:32:55;;;;;;;2.17;1.60;;;30.70;37.60;;;-142.21;32.82;112049.66;5055668;28;20259;-73
2022/08/08 10:35:26;;;;;;;1.83;1.50;;;30.80;37.60;;;-142.21;32.19;112049.66;5056051;28;20194;-74
2022/08/08 10:38:00;;;;;;;1.90;1.80;;;30.90;36.90;;;-142.21;32.28;112049.66;5055272;28;20204;-75
2022/08/08 10:40:31;;;;;;;1.57;1.40;;;31.10;36.60;;;-142.21;31.71;112049.66;5056120;28;20193;-76
2022/08/08 10:43:01;;;;;;;1.53;1.43;;;31.20;36.50;;;-142.21;31.79;112049.66;5055951;28;20237;-75
2022/08/08 10:45:29;;;;;;;1.67;1.40;;;31.30;36.40;;;-142.21;31.98;112049.66;5055544;28;20312;-75
2022/08/08 10:47:58;;;;;;;1.47;1.37;;;31.40;36.10;;;-142.21;32.30;112049.66;5056375;28;20213;-74
2022/08/08 10:50:35;;;;;;;1.40;1.30;;;31.50;36.20;;;-142.21;32.08;112049.66;5055918;28;20206;-74
2022/08/08 10:53:06;;;;;;;2.13;1.53;;;31.60;36.20;;;-142.21;31.25;112049.66;5056131;28;20201;-74
2022/08/08 10:55:36;;;;;;;2.03;1.13;;;31.70;35.50;;;-142.21;29.99;112049.66;5054833;28;20198;-74
2022/08/08 10:58:07;;;;;;;2.07;1.40;;;31.90;34.60;;;-142.21;30.89;112049.66;5055541;28;20228;-75